TimeCDT,TemperatureF,Dew PointF,Humidity,Sea Level PressureIn,VisibilityMPH,Wind Direction,Wind SpeedMPH,Gust SpeedMPH,PrecipitationIn,Events,Conditions,WindDirDegrees,DateUTC
12:53 AM,43.0,32.0,65,29.98,10.0,SE,10.4,-,N/A,,Overcast,130,2012-10-29 05:53:00
1:53 AM,41.0,32.0,70,29.99,10.0,ESE,5.8,-,N/A,,Mostly Cloudy,120,2012-10-29 06:53:00
2:53 AM,42.1,33.1,70,29.99,10.0,ESE,8.1,-,N/A,,Overcast,120,2012-10-29 07:53:00
3:53 AM,42.1,34.0,73,30.00,10.0,SSE,6.9,-,N/A,,Mostly Cloudy,150,2012-10-29 08:53:00
4:53 AM,39.0,32.0,76,30.00,10.0,SE,4.6,-,N/A,,Mostly Cloudy,130,2012-10-29 09:53:00
5:53 AM,36.0,30.9,82,30.01,10.0,Calm,Calm,-,N/A,,Clear,0,2012-10-29 10:53:00
6:53 AM,35.1,30.0,82,30.01,10.0,SE,3.5,-,N/A,,Clear,140,2012-10-29 11:53:00
7:53 AM,34.0,30.9,89,30.02,10.0,Calm,Calm,-,N/A,,Clear,0,2012-10-29 12:53:00
8:53 AM,30.9,28.0,89,30.04,10.0,Calm,Calm,-,N/A,,Clear,0,2012-10-29 13:53:00
9:53 AM,39.0,33.1,79,30.05,10.0,Calm,Calm,-,N/A,,Clear,0,2012-10-29 14:53:00
10:53 AM,43.0,34.0,71,30.05,10.0,South,4.6,-,N/A,,Clear,190,2012-10-29 15:53:00
11:53 AM,48.0,35.1,61,30.05,10.0,Calm,Calm,-,N/A,,Clear,0,2012-10-29 16:53:00
12:53 PM,54.0,35.1,49,30.03,10.0,SE,6.9,-,N/A,,Partly Cloudy,140,2012-10-29 17:53:00
1:53 PM,59.0,35.1,41,30.01,10.0,SE,8.1,-,N/A,,Clear,130,2012-10-29 18:53:00
2:53 PM,60.1,35.1,39,29.98,10.0,ESE,11.5,-,N/A,,Mostly Cloudy,120,2012-10-29 19:53:00
3:53 PM,61.0,35.1,38,29.97,10.0,East,11.5,-,N/A,,Partly Cloudy,100,2012-10-29 20:53:00
4:53 PM,60.1,36.0,41,29.97,10.0,ESE,11.5,-,N/A,,Scattered Clouds,110,2012-10-29 21:53:00
5:53 PM,59.0,35.1,41,29.97,10.0,ESE,17.3,21.9,N/A,,Clear,120,2012-10-29 22:53:00
6:53 PM,55.9,36.0,47,29.98,10.0,ESE,11.5,-,N/A,,Mostly Cloudy,110,2012-10-29 23:53:00
7:53 PM,55.0,36.0,49,29.98,10.0,ESE,13.8,-,N/A,,Overcast,120,2012-10-30 00:53:00
8:53 PM,53.1,36.0,52,30.00,10.0,ESE,11.5,-,N/A,,Overcast,110,2012-10-30 01:53:00
9:53 PM,52.0,36.0,54,29.99,10.0,ESE,15.0,-,N/A,,Overcast,110,2012-10-30 02:53:00
10:53 PM,50.0,35.1,57,29.99,10.0,ESE,10.4,-,N/A,,Overcast,120,2012-10-30 03:53:00
11:53 PM,48.9,35.1,59,29.98,10.0,East,8.1,-,N/A,,Overcast,80,2012-10-30 04:53:00